sensor_id;sensor_type;location;lat;lon;timestamp;pressure;altitude;pressure_sealevel;temperature;humidity
804;BME280;25687;49.976;8.240;2023-01-27T00:01:37;100527.72;;;0.04;100.00
804;BME280;25687;49.976;8.240;2023-01-27T00:04:02;100533.66;;;-0.02;100.00
804;BME280;25687;49.976;8.240;2023-01-27T00:06:28;100534.53;;;-0.12;100.00
804;BME280;25687;49.976;8.240;2023-01-27T00:08:53;100539.59;;;-0.07;100.00
804;BME280;25687;49.976;8.240;2023-01-27T00:11:19;100535.28;;;0.10;100.00
804;BME280;25687;49.976;8.240;2023-01-27T00:14:02;100536.94;;;0.24;100.00
804;BME280;25687;49.976;8.240;2023-01-27T00:16:27;100537.75;;;0.23;100.00
804;BME280;25687;49.976;8.240;2023-01-27T00:18:52;100531.09;;;0.08;100.00
804;BME280;25687;49.976;8.240;2023-01-27T00:21:18;100538.72;;;-0.03;100.00
804;BME280;25687;49.976;8.240;2023-01-27T00:24:01;100533.66;;;0.00;100.00
804;BME280;25687;49.976;8.240;2023-01-27T00:26:45;100536.22;;;-0.09;100.00
804;BME280;25687;49.976;8.240;2023-01-27T00:29:10;100531.09;;;0.05;100.00
804;BME280;25687;49.976;8.240;2023-01-27T00:31:36;100527.75;;;0.03;100.00
804;BME280;25687;49.976;8.240;2023-01-27T00:34:20;100523.50;;;0.08;100.00
804;BME280;25687;49.976;8.240;2023-01-27T00:36:45;100529.38;;;0.13;100.00
804;BME280;25687;49.976;8.240;2023-01-27T00:39:10;100531.09;;;0.05;100.00
804;BME280;25687;49.976;8.240;2023-01-27T00:41:36;100526.88;;;0.05;100.00
804;BME280;25687;49.976;8.240;2023-01-27T00:44:01;100529.41;;;0.07;100.00
804;BME280;25687;49.976;8.240;2023-01-27T00:46:27;100524.31;;;0.18;100.00
804;BME280;25687;49.976;8.240;2023-01-27T00:48:52;100527.69;;;0.17;100.00
804;BME280;25687;49.976;8.240;2023-01-27T00:51:18;100524.25;;;0.22;100.00
804;BME280;25687;49.976;8.240;2023-01-27T00:53:43;100526.75;;;0.31;100.00
804;BME280;25687;49.976;8.240;2023-01-27T00:56:08;100524.25;;;0.22;100.00
804;BME280;25687;49.976;8.240;2023-01-27T00:58:34;100522.56;;;0.29;100.00
804;BME280;25687;49.976;8.240;2023-01-27T01:01:00;100526.75;;;0.31;100.00
804;BME280;25687;49.976;8.240;2023-01-27T01:03:26;100529.28;;;0.36;100.00
804;BME280;25687;49.976;8.240;2023-01-27T01:05:58;100529.22;;;0.41;100.00
804;BME280;25687;49.976;8.240;2023-01-27T01:08:23;100520.00;;;0.35;100.00
804;BME280;25687;49.976;8.240;2023-01-27T01:10:48;100521.63;;;0.42;100.00
804;BME280;25687;49.976;8.240;2023-01-27T01:13:13;100531.72;;;0.47;100.00
804;BME280;25687;49.976;8.240;2023-01-27T01:15:39;100526.66;;;0.48;100.00
804;BME280;25687;49.976;8.240;2023-01-27T01:18:05;100533.41;;;0.48;100.00
804;BME280;25687;49.976;8.240;2023-01-27T01:20:34;100530.91;;;0.45;100.00
804;BME280;25687;49.976;8.240;2023-01-27T01:22:59;100538.53;;;0.36;100.00
804;BME280;25687;49.976;8.240;2023-01-27T01:25:24;100537.66;;;0.46;100.00
804;BME280;25687;49.976;8.240;2023-01-27T01:27:49;100536.81;;;0.41;100.00
804;BME280;25687;49.976;8.240;2023-01-27T01:30:15;100536.75;;;0.55;100.00
804;BME280;25687;49.976;8.240;2023-01-27T01:32:40;100542.59;;;0.63;100.00
804;BME280;25687;49.976;8.240;2023-01-27T01:35:05;100545.97;;;0.63;100.00
804;BME280;25687;49.976;8.240;2023-01-27T01:37:31;100540.06;;;0.63;100.00
804;BME280;25687;49.976;8.240;2023-01-27T01:39:56;100537.53;;;0.61;100.00
804;BME280;25687;49.976;8.240;2023-01-27T01:42:21;100535.94;;;0.48;100.00
804;BME280;25687;49.976;8.240;2023-01-27T01:44:46;100534.22;;;0.52;100.00
804;BME280;25687;49.976;8.240;2023-01-27T01:47:15;100535.03;;;0.57;100.00
804;BME280;25687;49.976;8.240;2023-01-27T01:49:40;100534.22;;;0.52;100.00
804;BME280;25687;49.976;8.240;2023-01-27T01:52:08;100534.25;;;0.50;100.00
804;BME280;25687;49.976;8.240;2023-01-27T01:54:36;100527.47;;;0.51;100.00
804;BME280;25687;49.976;8.240;2023-01-27T01:57:09;100538.47;;;0.43;100.00
804;BME280;25687;49.976;8.240;2023-01-27T01:59:37;100530.84;;;0.53;100.00
804;BME280;25687;49.976;8.240;2023-01-27T02:02:05;100535.03;;;0.57;100.00
804;BME280;25687;49.976;8.240;2023-01-27T02:04:35;100534.94;;;0.69;100.00
804;BME280;25687;49.976;8.240;2023-01-27T02:07:20;100532.44;;;0.68;100.00
804;BME280;25687;49.976;8.240;2023-01-27T02:09:46;100542.59;;;0.66;100.00
804;BME280;25687;49.976;8.240;2023-01-27T02:12:11;100529.94;;;0.61;100.00
804;BME280;25687;49.976;8.240;2023-01-27T02:14:36;100529.94;;;0.66;100.00
804;BME280;25687;49.976;8.240;2023-01-27T02:17:03;100523.13;;;0.68;100.00
804;BME280;25687;49.976;8.240;2023-01-27T02:21:54;100531.69;;;0.56;100.00
804;BME280;25687;49.976;8.240;2023-01-27T02:24:20;100531.66;;;0.58;100.00
804;BME280;25687;49.976;8.240;2023-01-27T02:26:47;100529.97;;;0.58;100.00
804;BME280;25687;49.976;8.240;2023-01-27T02:29:13;100527.38;;;0.68;100.00
804;BME280;25687;49.976;8.240;2023-01-27T02:31:39;100518.94;;;0.67;100.00
804;BME280;25687;49.976;8.240;2023-01-27T02:34:05;100527.41;;;0.66;100.00
804;BME280;25687;49.976;8.240;2023-01-27T02:36:32;100519.75;;;0.71;100.00
804;BME280;25687;49.976;8.240;2023-01-27T02:38:58;100524.81;;;0.71;100.00
804;BME280;25687;49.976;8.240;2023-01-27T02:44:42;100539.19;;;0.70;100.00
804;BME280;25687;49.976;8.240;2023-01-27T02:47:07;100533.34;;;0.56;100.00
804;BME280;25687;49.976;8.240;2023-01-27T02:49:33;100530.81;;;0.59;100.00
804;BME280;25687;49.976;8.240;2023-01-27T02:51:58;100524.91;;;0.57;100.00
804;BME280;25687;49.976;8.240;2023-01-27T02:54:24;100528.34;;;0.51;100.00
804;BME280;25687;49.976;8.240;2023-01-27T02:56:49;100535.84;;;0.62;100.00
804;BME280;25687;49.976;8.240;2023-01-27T02:59:14;100540.88;;;0.68;100.00
804;BME280;25687;49.976;8.240;2023-01-27T03:01:39;100540.00;;;0.71;100.00
804;BME280;25687;49.976;8.240;2023-01-27T03:04:05;100536.63;;;0.73;100.00
804;BME280;25687;49.976;8.240;2023-01-27T03:06:30;100538.25;;;0.82;100.00
804;BME280;25687;49.976;8.240;2023-01-27T03:08:55;100532.34;;;0.80;100.00
804;BME280;25687;49.976;8.240;2023-01-27T03:11:20;100539.94;;;0.85;100.00
804;BME280;25687;49.976;8.240;2023-01-27T03:14:05;100539.19;;;0.69;100.00
804;BME280;25687;49.976;8.240;2023-01-27T03:16:30;100534.91;;;0.77;100.00
804;BME280;25687;49.976;8.240;2023-01-27T03:19:14;100539.97;;;0.77;100.00
804;BME280;25687;49.976;8.240;2023-01-27T03:21:39;100544.22;;;0.75;100.00
804;BME280;25687;49.976;8.240;2023-01-27T03:24:05;100540.84;;;0.76;100.00
804;BME280;25687;49.976;8.240;2023-01-27T03:26:30;100542.50;;;0.75;100.00
804;BME280;25687;49.976;8.240;2023-01-27T03:28:55;100545.84;;;0.82;100.00
804;BME280;25687;49.976;8.240;2023-01-27T03:31:39;100549.25;;;0.79;100.00
804;BME280;25687;49.976;8.240;2023-01-27T03:34:04;100542.44;;;0.83;100.00
804;BME280;25687;49.976;8.240;2023-01-27T03:36:29;100548.34;;;0.85;100.00
804;BME280;25687;49.976;8.240;2023-01-27T03:39:13;100547.47;;;0.91;100.00
804;BME280;25687;49.976;8.240;2023-01-27T03:41:57;100547.56;;;0.78;100.00
804;BME280;25687;49.976;8.240;2023-01-27T03:44:41;100551.78;;;0.78;100.00
804;BME280;25687;49.976;8.240;2023-01-27T03:47:25;100547.56;;;0.77;100.00
804;BME280;25687;49.976;8.240;2023-01-27T03:49:50;100551.81;;;0.73;100.00
804;BME280;25687;49.976;8.240;2023-01-27T03:52:15;100546.75;;;0.75;100.00
804;BME280;25687;49.976;8.240;2023-01-27T03:54:40;100545.94;;;0.70;100.00
804;BME280;25687;49.976;8.240;2023-01-27T03:57:06;100552.63;;;0.78;100.00
804;BME280;25687;49.976;8.240;2023-01-27T03:59:31;100556.81;;;0.83;100.00
804;BME280;25687;49.976;8.240;2023-01-27T04:01:56;100549.25;;;0.79;100.00
804;BME280;25687;49.976;8.240;2023-01-27T04:04:40;100545.91;;;0.76;100.00
804;BME280;25687;49.976;8.240;2023-01-27T04:07:24;100549.31;;;0.70;100.00
804;BME280;25687;49.976;8.240;2023-01-27T04:09:50;100555.25;;;0.64;100.00
804;BME280;25687;49.976;8.240;2023-01-27T04:12:15;100548.50;;;0.63;100.00
804;BME280;25687;49.976;8.240;2023-01-27T04:14:40;100552.72;;;0.64;100.00
804;BME280;25687;49.976;8.240;2023-01-27T04:17:12;100548.47;;;0.67;100.00
804;BME280;25687;49.976;8.240;2023-01-27T04:19:38;100550.22;;;0.60;100.00
804;BME280;25687;49.976;8.240;2023-01-27T04:22:03;100544.28;;;0.59;100.00
804;BME280;25687;49.976;8.240;2023-01-27T04:24:29;100552.69;;;0.68;100.00
804;BME280;25687;49.976;8.240;2023-01-27T04:26:58;100556.09;;;0.65;100.00
804;BME280;25687;49.976;8.240;2023-01-27T04:29:25;100558.63;;;0.65;100.00
804;BME280;25687;49.976;8.240;2023-01-27T04:31:51;100556.91;;;0.70;100.00
804;BME280;25687;49.976;8.240;2023-01-27T04:34:17;100556.94;;;0.62;100.00
804;BME280;25687;49.976;8.240;2023-01-27T04:36:42;100561.16;;;0.65;100.00
804;BME280;25687;49.976;8.240;2023-01-27T04:39:08;100558.66;;;0.60;100.00
804;BME280;25687;49.976;8.240;2023-01-27T04:41:33;100556.94;;;0.62;100.00
804;BME280;25687;49.976;8.240;2023-01-27T04:43:58;100556.09;;;0.63;100.00
804;BME280;25687;49.976;8.240;2023-01-27T04:46:24;100554.38;;;0.69;100.00
804;BME280;25687;49.976;8.240;2023-01-27T04:48:49;100567.91;;;0.66;100.00
804;BME280;25687;49.976;8.240;2023-01-27T04:51:14;100567.03;;;0.66;100.00
804;BME280;25687;49.976;8.240;2023-01-27T04:53:39;100568.69;;;0.73;100.00
804;BME280;25687;49.976;8.240;2023-01-27T04:56:05;100558.63;;;0.63;100.00
804;BME280;25687;49.976;8.240;2023-01-27T04:58:31;100564.50;;;0.66;100.00
804;BME280;25687;49.976;8.240;2023-01-27T05:00:56;100564.53;;;0.67;100.00
804;BME280;25687;49.976;8.240;2023-01-27T05:03:21;100565.31;;;0.71;100.00
804;BME280;25687;49.976;8.240;2023-01-27T05:05:47;100567.06;;;0.67;100.00
804;BME280;25687;49.976;8.240;2023-01-27T05:08:12;100568.72;;;0.67;100.00
804;BME280;25687;49.976;8.240;2023-01-27T05:10:37;100574.63;;;0.69;100.00
804;BME280;25687;49.976;8.240;2023-01-27T05:13:02;100572.06;;;0.72;100.00
804;BME280;25687;49.976;8.240;2023-01-27T05:15:28;100572.09;;;0.70;100.00
804;BME280;25687;49.976;8.240;2023-01-27T05:17:54;100576.28;;;0.74;100.00
804;BME280;25687;49.976;8.240;2023-01-27T05:20:19;100575.44;;;0.75;100.00
804;BME280;25687;49.976;8.240;2023-01-27T05:22:44;100585.59;;;0.72;100.00
804;BME280;25687;49.976;8.240;2023-01-27T05:25:10;100577.16;;;0.69;100.00
804;BME280;25687;49.976;8.240;2023-01-27T05:27:35;100580.56;;;0.68;100.00
804;BME280;25687;49.976;8.240;2023-01-27T05:30:00;100583.91;;;0.71;100.00
804;BME280;25687;49.976;8.240;2023-01-27T05:32:25;100584.69;;;0.81;100.00
804;BME280;25687;49.976;8.240;2023-01-27T05:34:50;100584.66;;;0.84;100.00
804;BME280;25687;49.976;8.240;2023-01-27T05:37:16;100584.63;;;0.90;100.00
804;BME280;25687;49.976;8.240;2023-01-27T05:39:41;100587.16;;;0.89;100.00
804;BME280;25687;49.976;8.240;2023-01-27T05:42:06;100592.25;;;0.87;100.00
804;BME280;25687;49.976;8.240;2023-01-27T05:44:31;100590.53;;;0.88;100.00
804;BME280;25687;49.976;8.240;2023-01-27T05:46:56;100589.72;;;0.87;100.00
804;BME280;25687;49.976;8.240;2023-01-27T05:49:22;100592.22;;;0.92;100.00
804;BME280;25687;49.976;8.240;2023-01-27T05:51:47;100590.47;;;0.99;100.00
804;BME280;25687;49.976;8.240;2023-01-27T05:54:12;100587.97;;;0.95;100.00
804;BME280;25687;49.976;8.240;2023-01-27T05:56:37;100591.41;;;0.88;100.00
804;BME280;25687;49.976;8.240;2023-01-27T05:59:03;100594.72;;;0.95;100.00
804;BME280;25687;49.976;8.240;2023-01-27T06:01:29;100593.88;;;0.96;100.00
804;BME280;25687;49.976;8.240;2023-01-27T06:03:55;100595.56;;;0.97;100.00
804;BME280;25687;49.976;8.240;2023-01-27T06:06:21;100594.75;;;0.93;100.00
804;BME280;25687;49.976;8.240;2023-01-27T06:08:47;100595.50;;;1.02;100.00
804;BME280;25687;49.976;8.240;2023-01-27T06:11:12;100592.94;;;1.06;100.00
804;BME280;25687;49.976;8.240;2023-01-27T06:13:38;100602.25;;;1.07;100.00
804;BME280;25687;49.976;8.240;2023-01-27T06:16:04;100604.78;;;1.06;100.00
804;BME280;25687;49.976;8.240;2023-01-27T06:18:30;100604.78;;;1.07;100.00
804;BME280;25687;49.976;8.240;2023-01-27T06:20:58;100597.97;;;1.14;100.00
804;BME280;25687;49.976;8.240;2023-01-27T06:23:23;100605.47;;;1.25;100.00
804;BME280;25687;49.976;8.240;2023-01-27T06:25:49;100609.72;;;1.24;100.00
804;BME280;25687;49.976;8.240;2023-01-27T06:28:14;100616.41;;;1.33;100.00
804;BME280;25687;49.976;8.240;2023-01-27T06:30:39;100617.34;;;1.23;100.00
804;BME280;25687;49.976;8.240;2023-01-27T06:33:05;100611.44;;;1.21;100.00
804;BME280;25687;49.976;8.240;2023-01-27T06:35:31;100614.88;;;1.13;100.00
804;BME280;25687;49.976;8.240;2023-01-27T06:37:57;100616.56;;;1.13;100.00
804;BME280;25687;49.976;8.240;2023-01-27T06:40:22;100627.47;;;1.23;100.00
804;BME280;25687;49.976;8.240;2023-01-27T06:42:48;100626.63;;;1.25;100.00
804;BME280;25687;49.976;8.240;2023-01-27T06:45:13;100628.22;;;1.33;100.00
804;BME280;25687;49.976;8.240;2023-01-27T06:47:38;100626.56;;;1.32;100.00
804;BME280;25687;49.976;8.240;2023-01-27T06:50:04;100633.28;;;1.33;100.00
804;BME280;25687;49.976;8.240;2023-01-27T06:52:30;100629.09;;;1.33;100.00
804;BME280;25687;49.976;8.240;2023-01-27T06:54:55;100632.38;;;1.41;100.00
804;BME280;25687;49.976;8.240;2023-01-27T06:57:20;100627.38;;;1.37;100.00
804;BME280;25687;49.976;8.240;2023-01-27T06:59:46;100635.72;;;1.45;100.00
804;BME280;25687;49.976;8.240;2023-01-27T07:02:11;100630.72;;;1.40;100.00
804;BME280;25687;49.976;8.240;2023-01-27T07:04:37;100635.09;;;1.23;100.00
804;BME280;25687;49.976;8.240;2023-01-27T07:07:02;100631.72;;;1.19;100.00
804;BME280;25687;49.976;8.240;2023-01-27T07:09:27;100637.63;;;1.21;100.00
804;BME280;25687;49.976;8.240;2023-01-27T07:11:52;100634.22;;;1.25;100.00
804;BME280;25687;49.976;8.240;2023-01-27T07:14:17;100646.00;;;1.31;100.00
804;BME280;25687;49.976;8.240;2023-01-27T07:16:43;100644.31;;;1.32;100.00
804;BME280;25687;49.976;8.240;2023-01-27T07:19:08;100640.91;;;1.33;100.00
804;BME280;25687;49.976;8.240;2023-01-27T07:21:33;100645.97;;;1.34;100.00
804;BME280;25687;49.976;8.240;2023-01-27T07:23:58;100641.78;;;1.28;100.00
804;BME280;25687;49.976;8.240;2023-01-27T07:26:23;100645.16;;;1.31;100.00
804;BME280;25687;49.976;8.240;2023-01-27T07:28:49;100643.38;;;1.39;100.00
804;BME280;25687;49.976;8.240;2023-01-27T07:31:14;100655.22;;;1.43;100.00
804;BME280;25687;49.976;8.240;2023-01-27T07:33:39;100656.03;;;1.47;100.00
804;BME280;25687;49.976;8.240;2023-01-27T07:36:04;100656.84;;;1.50;100.00
804;BME280;25687;49.976;8.240;2023-01-27T07:38:29;100656.91;;;1.44;100.00
804;BME280;25687;49.976;8.240;2023-01-27T07:40:55;100661.16;;;1.40;100.00
804;BME280;25687;49.976;8.240;2023-01-27T07:43:20;100664.47;;;1.47;100.00
804;BME280;25687;49.976;8.240;2023-01-27T07:45:45;100661.06;;;1.53;100.00
804;BME280;25687;49.976;8.240;2023-01-27T07:48:12;100665.31;;;1.46;100.00
804;BME280;25687;49.976;8.240;2023-01-27T07:50:38;100664.41;;;1.53;100.00
804;BME280;25687;49.976;8.240;2023-01-27T07:53:03;100665.28;;;1.51;100.00
804;BME280;25687;49.976;8.240;2023-01-27T07:55:29;100666.16;;;1.48;100.00
804;BME280;25687;49.976;8.240;2023-01-27T07:57:54;100669.56;;;1.44;100.00
804;BME280;25687;49.976;8.240;2023-01-27T08:00:20;100676.41;;;1.31;100.00
804;BME280;25687;49.976;8.240;2023-01-27T08:02:49;100672.19;;;1.32;100.00
804;BME280;25687;49.976;8.240;2023-01-27T08:05:15;100677.22;;;1.35;100.00
804;BME280;25687;49.976;8.240;2023-01-27T08:07:40;100673.81;;;1.39;100.00
804;BME280;25687;49.976;8.240;2023-01-27T08:10:06;100673.75;;;1.45;100.00
804;BME280;25687;49.976;8.240;2023-01-27T08:12:31;100682.19;;;1.52;100.00
804;BME280;25687;49.976;8.240;2023-01-27T08:14:56;100687.22;;;1.56;100.00
804;BME280;25687;49.976;8.240;2023-01-27T08:17:21;100688.00;;;1.60;100.00
804;BME280;25687;49.976;8.240;2023-01-27T08:19:47;100683.00;;;1.52;100.00
804;BME280;25687;49.976;8.240;2023-01-27T08:22:14;100692.25;;;1.59;100.00
804;BME280;25687;49.976;8.240;2023-01-27T08:24:43;100688.03;;;1.61;100.00
804;BME280;25687;49.976;8.240;2023-01-27T08:27:08;100687.97;;;1.69;100.00
804;BME280;25687;49.976;8.240;2023-01-27T08:29:34;100687.84;;;1.78;100.00
804;BME280;25687;49.976;8.240;2023-01-27T08:31:59;100684.50;;;1.78;100.00
804;BME280;25687;49.976;8.240;2023-01-27T08:34:24;100691.22;;;1.81;100.00
804;BME280;25687;49.976;8.240;2023-01-27T08:36:49;100694.72;;;1.70;100.00
804;BME280;25687;49.976;8.240;2023-01-27T08:39:14;100698.09;;;1.69;100.00
804;BME280;25687;49.976;8.240;2023-01-27T08:41:40;100698.00;;;1.78;100.00
804;BME280;25687;49.976;8.240;2023-01-27T08:44:05;100692.81;;;1.94;100.00
804;BME280;25687;49.976;8.240;2023-01-27T08:46:30;100706.34;;;1.93;100.00
804;BME280;25687;49.976;8.240;2023-01-27T08:48:56;100700.44;;;1.91;100.00
804;BME280;25687;49.976;8.240;2023-01-27T08:51:21;100701.94;;;2.10;100.00
804;BME280;25687;49.976;8.240;2023-01-27T08:53:46;100701.88;;;2.20;100.00
804;BME280;25687;49.976;8.240;2023-01-27T08:56:12;100714.56;;;2.18;100.00
804;BME280;25687;49.976;8.240;2023-01-27T08:58:38;100713.78;;;2.15;100.00
804;BME280;25687;49.976;8.240;2023-01-27T09:01:04;100715.44;;;2.16;100.00
804;BME280;25687;49.976;8.240;2023-01-27T09:03:29;100716.25;;;2.19;100.00
804;BME280;25687;49.976;8.240;2023-01-27T09:05:55;100717.84;;;2.30;100.00
804;BME280;25687;49.976;8.240;2023-01-27T09:08:20;100717.91;;;2.25;100.00
804;BME280;25687;49.976;8.240;2023-01-27T09:10:45;100723.84;;;2.22;100.00
804;BME280;25687;49.976;8.240;2023-01-27T09:13:10;100728.09;;;2.20;100.00
804;BME280;25687;49.976;8.240;2023-01-27T09:15:36;100733.25;;;2.13;100.00
804;BME280;25687;49.976;8.240;2023-01-27T09:18:02;100741.63;;;2.19;100.00
804;BME280;25687;49.976;8.240;2023-01-27T09:20:27;100739.31;;;1.94;100.00
804;BME280;25687;49.976;8.240;2023-01-27T09:22:55;100743.53;;;1.97;100.00
804;BME280;25687;49.976;8.240;2023-01-27T09:25:21;100750.25;;;2.00;100.00
804;BME280;25687;49.976;8.240;2023-01-27T09:27:46;100748.59;;;1.99;100.00
804;BME280;25687;49.976;8.240;2023-01-27T09:30:12;100743.59;;;1.92;100.00
804;BME280;25687;49.976;8.240;2023-01-27T09:32:38;100749.44;;;1.98;100.00
804;BME280;25687;49.976;8.240;2023-01-27T09:35:04;100743.59;;;1.92;100.00
804;BME280;25687;49.976;8.240;2023-01-27T09:37:30;100742.72;;;1.93;100.00
804;BME280;25687;49.976;8.240;2023-01-27T09:39:58;100749.44;;;1.99;100.00
804;BME280;25687;49.976;8.240;2023-01-27T09:42:30;100750.34;;;1.92;100.00
804;BME280;25687;49.976;8.240;2023-01-27T09:47:51;100747.78;;;1.95;100.00
804;BME280;25687;49.976;8.240;2023-01-27T09:50:29;100751.19;;;1.89;100.00
804;BME280;25687;49.976;8.240;2023-01-27T09:56:00;100752.00;;;1.98;100.00
804;BME280;25687;49.976;8.240;2023-01-27T10:06:24;100744.41;;;1.93;100.00
804;BME280;25687;49.976;8.240;2023-01-27T10:19:23;100752.75;;;2.04;100.00
804;BME280;25687;49.976;8.240;2023-01-27T10:21:58;100746.75;;;2.13;100.00
804;BME280;25687;49.976;8.240;2023-01-27T10:24:35;100743.28;;;2.25;100.00
804;BME280;25687;49.976;8.240;2023-01-27T10:27:16;100744.09;;;2.29;100.00
804;BME280;25687;49.976;8.240;2023-01-27T10:29:46;100741.50;;;2.32;100.00
804;BME280;25687;49.976;8.240;2023-01-27T10:32:33;100736.41;;;2.36;100.00
804;BME280;25687;49.976;8.240;2023-01-27T10:37:51;100739.06;;;2.24;100.00
804;BME280;25687;49.976;8.240;2023-01-27T10:40:19;100734.00;;;2.22;100.00
804;BME280;25687;49.976;8.240;2023-01-27T10:42:52;100735.53;;;2.37;100.00
804;BME280;25687;49.976;8.240;2023-01-27T10:45:35;100728.81;;;2.33;100.00
804;BME280;25687;49.976;8.240;2023-01-27T10:50:32;100727.09;;;2.35;100.00
804;BME280;25687;49.976;8.240;2023-01-27T10:53:05;100737.09;;;2.49;100.00
804;BME280;25687;49.976;8.240;2023-01-27T10:58:04;100735.47;;;2.44;100.00
804;BME280;25687;49.976;8.240;2023-01-27T11:00:38;100741.47;;;2.39;100.00
804;BME280;25687;49.976;8.240;2023-01-27T11:03:15;100740.59;;;2.42;100.00
804;BME280;25687;49.976;8.240;2023-01-27T11:05:47;100738.84;;;2.44;100.00
804;BME280;25687;49.976;8.240;2023-01-27T11:08:15;100736.25;;;2.52;100.00
804;BME280;25687;49.976;8.240;2023-01-27T11:10:43;100732.16;;;2.38;100.00
804;BME280;25687;49.976;8.240;2023-01-27T11:13:30;100727.88;;;2.42;100.00
804;BME280;25687;49.976;8.240;2023-01-27T11:15:56;100727.91;;;2.39;100.00
804;BME280;25687;49.976;8.240;2023-01-27T11:18:22;100730.34;;;2.50;100.00
804;BME280;25687;49.976;8.240;2023-01-27T11:20:51;100729.44;;;2.54;100.00
804;BME280;25687;49.976;8.240;2023-01-27T11:23:21;100734.72;;;2.35;100.00
804;BME280;25687;49.976;8.240;2023-01-27T11:25:58;100740.56;;;2.44;100.00
804;BME280;25687;49.976;8.240;2023-01-27T11:31:14;100730.94;;;2.69;100.00
804;BME280;25687;49.976;8.240;2023-01-27T11:33:59;100732.59;;;2.74;100.00
804;BME280;25687;49.976;8.240;2023-01-27T11:36:29;100723.31;;;2.70;100.00
804;BME280;25687;49.976;8.240;2023-01-27T11:38:54;100726.63;;;2.77;100.00
804;BME280;25687;49.976;8.240;2023-01-27T11:41:20;100729.13;;;2.82;100.00
804;BME280;25687;49.976;8.240;2023-01-27T11:43:46;100718.31;;;2.66;100.00
804;BME280;25687;49.976;8.240;2023-01-27T11:46:13;100720.88;;;2.63;100.00
804;BME280;25687;49.976;8.240;2023-01-27T11:48:48;100719.03;;;2.74;100.00
804;BME280;25687;49.976;8.240;2023-01-27T11:51:16;100717.13;;;2.93;100.00
804;BME280;25687;49.976;8.240;2023-01-27T11:53:42;100712.75;;;3.01;100.00
804;BME280;25687;49.976;8.240;2023-01-27T11:56:10;100716.16;;;3.02;100.00
804;BME280;25687;49.976;8.240;2023-01-27T11:58:42;100708.53;;;3.02;100.00
804;BME280;25687;49.976;8.240;2023-01-27T12:01:10;100704.34;;;2.98;100.00
804;BME280;25687;49.976;8.240;2023-01-27T12:03:42;100696.56;;;3.09;100.00
804;BME280;25687;49.976;8.240;2023-01-27T12:06:11;100703.41;;;3.03;100.00
804;BME280;25687;49.976;8.240;2023-01-27T12:08:42;100702.53;;;3.06;100.00
804;BME280;25687;49.976;8.240;2023-01-27T12:14:10;100706.00;;;2.99;100.00
804;BME280;25687;49.976;8.240;2023-01-27T12:16:41;100704.41;;;2.93;100.00
804;BME280;25687;49.976;8.240;2023-01-27T12:19:41;100701.97;;;2.84;100.00
804;BME280;25687;49.976;8.240;2023-01-27T12:22:05;100704.53;;;2.82;100.00
804;BME280;25687;49.976;8.240;2023-01-27T12:24:33;100699.50;;;2.78;100.00
804;BME280;25687;49.976;8.240;2023-01-27T12:26:59;100701.13;;;2.85;100.00
804;BME280;25687;49.976;8.240;2023-01-27T12:29:45;100698.47;;;2.93;100.00
804;BME280;25687;49.976;8.240;2023-01-27T12:32:16;100690.81;;;2.96;100.00
804;BME280;25687;49.976;8.240;2023-01-27T12:34:43;100682.28;;;3.00;100.00
804;BME280;25687;49.976;8.240;2023-01-27T12:37:16;100678.69;;;3.15;100.00
804;BME280;25687;49.976;8.240;2023-01-27T12:39:44;100677.97;;;3.06;100.00
804;BME280;25687;49.976;8.240;2023-01-27T12:44:56;100671.00;;;3.19;100.00
804;BME280;25687;49.976;8.240;2023-01-27T12:47:25;100670.44;;;3.00;100.00
804;BME280;25687;49.976;8.240;2023-01-27T12:49:50;100668.66;;;3.05;100.00
804;BME280;25687;49.976;8.240;2023-01-27T12:52:18;100670.16;;;3.19;100.00
804;BME280;25687;49.976;8.240;2023-01-27T12:54:44;100660.66;;;3.30;100.00
804;BME280;25687;49.976;8.240;2023-01-27T12:57:13;100665.84;;;3.24;100.00
804;BME280;25687;49.976;8.240;2023-01-27T12:59:44;100666.81;;;3.14;100.00
804;BME280;25687;49.976;8.240;2023-01-27T13:02:22;100664.25;;;3.17;100.00
804;BME280;25687;49.976;8.240;2023-01-27T13:04:55;100668.44;;;3.21;100.00
804;BME280;25687;49.976;8.240;2023-01-27T13:07:28;100670.13;;;3.20;100.00
804;BME280;25687;49.976;8.240;2023-01-27T13:09:58;100670.16;;;3.19;100.00
804;BME280;25687;49.976;8.240;2023-01-27T13:12:28;100671.06;;;3.16;100.00
804;BME280;25687;49.976;8.240;2023-01-27T13:14:55;100675.22;;;3.20;100.00
804;BME280;25687;49.976;8.240;2023-01-27T13:17:35;100673.53;;;3.19;100.00
804;BME280;25687;49.976;8.240;2023-01-27T13:20:44;100679.59;;;3.11;100.00
804;BME280;25687;49.976;8.240;2023-01-27T13:22:50;100672.81;;;3.13;100.00
804;BME280;25687;49.976;8.240;2023-01-27T13:25:21;100681.25;;;3.13;100.00
804;BME280;25687;49.976;8.240;2023-01-27T13:27:48;100689.06;;;3.01;100.00
804;BME280;25687;49.976;8.240;2023-01-27T13:30:24;100689.91;;;3.00;100.00
804;BME280;25687;49.976;8.240;2023-01-27T13:32:52;100685.88;;;2.85;100.00
804;BME280;25687;49.976;8.240;2023-01-27T13:35:30;100694.31;;;2.87;100.00
804;BME280;25687;49.976;8.240;2023-01-27T13:38:14;100688.34;;;2.91;100.00
804;BME280;25687;49.976;8.240;2023-01-27T13:40:43;100688.38;;;2.86;100.00
804;BME280;25687;49.976;8.240;2023-01-27T13:48:09;100702.81;;;2.86;100.00
804;BME280;25687;49.976;8.240;2023-01-27T13:50:52;100699.44;;;2.85;100.00
804;BME280;25687;49.976;8.240;2023-01-27T13:53:19;100696.09;;;2.82;100.00
804;BME280;25687;49.976;8.240;2023-01-27T13:56:28;100705.38;;;2.83;100.00
804;BME280;25687;49.976;8.240;2023-01-27T14:07:08;100710.44;;;2.86;100.00
804;BME280;25687;49.976;8.240;2023-01-27T14:14:42;100705.13;;;3.01;100.00
804;BME280;25687;49.976;8.240;2023-01-27T14:17:15;100706.91;;;2.96;100.00
804;BME280;25687;49.976;8.240;2023-01-27T14:22:39;100709.34;;;3.04;100.00